Data for 08/10/2016

Time Sea-Level Adjusted Pressure Absolute Pressure Temperature Relative Humidity Dew Point   
(mb) (inHg) (mb) (inHg) (C) (F) (%) (C) (F)
00:05 1018 30.06 847 25.01 13.4 56.1 58 5.4 41.8
00:10 1018 30.06 847 25.01 13.4 56 58 5.3 41.6
00:15 1018 30.06 847 25.01 13.3 55.9 58 5.4 41.6
00:20 1018 30.06 847 25.01 13.2 55.7 59 5.3 41.6
00:25 1018 30.06 847 25.01 13 55.5 60 5.4 41.8
00:30 1018 30.06 847 25.01 12.9 55.1 60 5.4 41.7
00:35 1018 30.06 847 25.01 12.7 54.9 61 5.4 41.7
00:40 1018 30.06 847 25.01 12.6 54.7 61 5.4 41.7
00:45 1018 30.06 847 25.01 12.5 54.4 62 5.4 41.7
00:50 1018 30.06 847 25.01 12.3 54.2 62 5.3 41.6
00:55 1018 30.06 847 25.01 12.2 54 62 5.2 41.4
01:00 1018 30.06 848 25.04 12 53.6 63 5.3 41.5
01:05 1018 30.06 848 25.04 11.8 53.3 62 4.9 40.9
01:10 1018 30.06 848 25.04 11.7 53.1 63 4.9 40.9
01:15 1018 30.06 848 25.04 11.5 52.8 63 4.8 40.7
01:20 1018 30.06 848 25.04 11.5 52.7 62 4.6 40.3
01:25 1018 30.06 848 25.04 11.6 52.8 62 4.7 40.4
01:30 1018 30.06 848 25.04 11.6 52.9 62 4.6 40.3
01:35 1018 30.06 847 25.01 11.6 52.8 62 4.5 40.1
01:40 1018 30.06 847 25.01 11.6 52.8 61 4.4 39.9
01:45 1018 30.06 847 25.01 11.6 52.9 61 4.4 40
01:50 1018 30.06 847 25.01 11.7 53 61 4.4 40
01:55 1018 30.06 848 25.04 11.8 53.2 61 4.4 40
02:00 1018 30.06 847 25.01 11.8 53.3 61 4.6 40.3
02:05 1018 30.06 848 25.04 11.9 53.4 61 4.7 40.4
02:10 1018 30.06 848 25.04 12 53.5 61 4.8 40.6
02:15 1018 30.06 847 25.01 12.1 53.7 61 4.8 40.6
02:20 1018 30.06 847 25.01 12.1 53.8 61 4.8 40.7
02:25 1018 30.06 847 25.01 12.2 54 61 4.9 40.8
02:30 1018 30.06 847 25.01 12.2 54 61 5.1 41.2
02:35 1018 30.06 847 25.01 12.2 54 61 4.9 40.7
02:40 1018 30.06 847 25.01 12.2 53.9 60 4.8 40.6
02:45 1018 30.06 847 25.01 12.2 54 60 4.8 40.7
02:50 1018 30.06 847 25.01 12.2 53.9 60 4.8 40.7
02:55 1018 30.06 847 25.01 12.1 53.8 61 4.8 40.7
03:00 1018 30.06 847 25.01 12.1 53.7 61 4.9 40.9
03:05 1018 30.06 847 25.01 11.9 53.5 62 5 40.9
03:10 1018 30.06 847 25.01 11.9 53.4 62 4.9 40.8
03:15 1018 30.06 847 25.01 11.8 53.3 63 5 40.9
03:20 1018 30.06 847 25.01 11.7 53.1 63 4.9 40.9
03:25 1018 30.06 847 25.01 11.6 52.8 63 4.9 40.9
03:30 1018 30.06 847 25.01 11.5 52.6 64 4.9 40.9
03:35 1018 30.06 847 25.01 11.3 52.4 64 4.8 40.7
03:40 1018 30.06 847 25.01 11.2 52.1 65 4.9 40.9
03:45 1018 30.06 847 25.01 11 51.8 66 5 41
03:50 1018 30.06 847 25.01 10.8 51.5 67 4.9 40.8
03:55 1018 30.06 848 25.04 10.7 51.2 66 4.7 40.5
04:00 1018 30.06 848 25.04 10.6 51.1 66 4.6 40.4
04:05 1018 30.06 848 25.04 10.5 50.9 67 4.6 40.3
04:10 1018 30.06 848 25.04 10.4 50.7 67 4.6 40.3
04:15 1018 30.06 848 25.04 10.3 50.5 68 4.6 40.3
04:20 1018 30.06 848 25.04 10.1 50.2 67 4.4 39.9
04:25 1018 30.06 848 25.04 10.1 50.1 68 4.6 40.2
04:30 1018 30.06 848 25.04 10 49.9 69 4.5 40.1
04:35 1018 30.06 848 25.04 9.9 49.9 70 4.7 40.5
04:40 1018 30.06 848 25.04 9.7 49.5 71 4.8 40.6
04:45 1018 30.06 848 25.04 9.6 49.2 71 4.6 40.4
04:50 1018 30.06 848 25.04 9.6 49.3 70 4.4 39.9
04:55 1018 30.06 848 25.04 9.8 49.6 70 4.6 40.2
05:00 1018 30.06 848 25.04 9.8 49.6 70 4.5 40.1
05:05 1018 30.06 848 25.04 9.9 49.7 68 4.3 39.8
05:10 1019 30.09 848 25.04 10 50.1 67 4.3 39.7
05:15 1019 30.09 848 25.04 10.2 50.3 66 4.2 39.6
05:20 1019 30.09 848 25.04 10.2 50.4 67 4.4 39.9
05:25 1019 30.09 848 25.04 10.1 50.1 68 4.5 40.2
05:30 1019 30.09 848 25.04 9.9 49.9 69 4.5 40.1
05:35 1019 30.09 848 25.04 9.8 49.6 70 4.6 40.3
05:40 1019 30.09 848 25.04 9.5 49.2 71 4.5 40.1
05:45 1019 30.09 848 25.04 9.2 48.6 72 4.4 39.9
05:50 1019 30.09 848 25.04 9.2 48.6 71 4.3 39.7
05:55 1019 30.09 848 25.04 9.3 48.8 71 4.4 39.9
06:00 1019 30.09 848 25.04 9.3 48.7 71 4.3 39.8
06:05 1019 30.09 848 25.04 9.7 49.5 69 4.3 39.8
06:10 1019 30.09 848 25.04 10 50 69 4.5 40.2
06:15 1019 30.09 848 25.04 10.1 50.1 68 4.4 40
06:20 1019 30.09 848 25.04 10.4 50.7 66 4.3 39.8
06:25 1019 30.09 848 25.04 11 51.7 64 4.4 40
06:30 1019 30.09 848 25.04 11.3 52.3 63 4.6 40.3
06:35 1019 30.09 848 25.04 11.3 52.3 63 4.5 40
06:40 1019 30.09 848 25.04 11.8 53.2 60 4.4 39.9
06:45 1019 30.09 848 25.04 12.3 54.1 60 4.8 40.6
06:50 1019 30.09 848 25.04 12.5 54.5 58 4.6 40.4
06:55 1019 30.09 848 25.04 12.9 55.2 57 4.7 40.4
07:00 1019 30.09 848 25.04 13 55.5 57 4.7 40.4
07:05 1019 30.09 848 25.04 13.3 56 55 4.5 40.2
07:10 1019 30.09 848 25.04 13.6 56.4 54 4.5 40.1
07:15 1019 30.09 848 25.04 13.8 56.9 52 4.3 39.7
07:20 1019 30.09 848 25.04 13.8 56.9 52 4.3 39.7
07:25 1019 30.09 848 25.04 13.7 56.6 55 4.8 40.6
07:30 1019 30.09 848 25.04 13.9 57 52 4.2 39.5
07:35 1019 30.09 848 25.04 14.4 58 50 4.3 39.8
07:40 1019 30.09 848 25.04 14.4 57.8 51 4.4 39.9
07:45 1019 30.09 848 25.04 14.6 58.3 51 4.6 40.3
07:50 1019 30.09 848 25.04 14.7 58.5 50 4.4 39.9
07:55 1019 30.09 848 25.04 14.9 58.8 49 4.3 39.7
08:00 1019 30.09 848 25.04 14.8 58.6 49 4.4 39.9
08:05 1019 30.09 848 25.04 14.6 58.2 50 4.4 39.9
08:10 1019 30.09 848 25.04 14.9 58.8 48 4 39.2
08:15 1019 30.09 848 25.04 15.1 59.1 50 4.8 40.6
08:20 1019 30.09 848 25.04 15.1 59.2 49 4.5 40.2
08:25 1019 30.09 848 25.04 15.2 59.4 49 4.6 40.3
08:30 1019 30.09 849 25.07 15 59 49 4.5 40
08:35 1019 30.09 848 25.04 15.3 59.5 47 4.1 39.3
08:40 1019 30.09 848 25.04 15.5 59.8 46 4.1 39.4
08:45 1019 30.09 848 25.04 15.6 60.2 46 4 39.2
08:50 1019 30.09 849 25.07 15.5 60 46 4 39.2
08:55 1019 30.09 849 25.07 15.8 60.4 43 3.3 38
09:00 1019 30.09 849 25.07 15.8 60.4 42 3.1 37.5
09:05 1019 30.09 848 25.04 15.9 60.7 44 3.6 38.5
09:10 1019 30.09 849 25.07 16 60.7 43 3.6 38.4
09:15 1019 30.09 849 25.07 16.1 61 42 3.3 38
09:20 1019 30.09 849 25.07 16.5 61.6 42 3.7 38.6
09:25 1019 30.09 849 25.07 16.7 62.1 41 3.3 38
09:30 1019 30.09 849 25.07 16.5 61.7 41 3.4 38.1
09:35 1019 30.09 849 25.07 16.6 61.8 41 3.5 38.4
09:40 1020 30.12 849 25.07 16.7 62.1 41 3.4 38.1
09:45 1020 30.12 849 25.07 17 62.6 39 3.1 37.6
09:50 1020 30.12 849 25.07 17.2 63 39 3.4 38.1
09:55 1020 30.12 849 25.07 17.3 63.1 38 2.8 37
10:00 1020 30.12 849 25.07 17.7 63.8 37 2.9 37.2
10:05 1019 30.09 849 25.07 17.7 63.9 38 3.4 38.1
10:10 1020 30.12 849 25.07 17.5 63.4 39 3.3 38
10:15 1020 30.12 849 25.07 17.6 63.7 37 2.8 37
10:20 1019 30.09 849 25.07 17.3 63.2 38 2.9 37.2
10:25 1019 30.09 849 25.07 17.6 63.7 36 2.6 36.7
10:30 1019 30.09 849 25.07 17.1 62.7 39 3 37.3
10:35 1019 30.09 849 25.07 17.6 63.7 38 3.2 37.7
10:40 1019 30.09 849 25.07 17.9 64.3 35 2.2 36
10:45 1019 30.09 849 25.07 18.8 65.8 33 2.5 36.5
10:50 1019 30.09 849 25.07 19.2 66.6 34 3.3 37.9
10:55 1019 30.09 849 25.07 17.8 64 36 2.8 37
11:00 1019 30.09 848 25.04 18.6 65.5 34 2.5 36.5
11:05 1019 30.09 848 25.04 18.9 65.9 34 2.7 36.8
11:10 1019 30.09 848 25.04 19 66.2 33 2.3 36.2
11:15 1019 30.09 848 25.04 19.4 66.8 33 2.8 37
11:20 1019 30.09 848 25.04 18.6 65.4 33 2.3 36.1
11:25 1019 30.09 848 25.04 18.9 66 32 1.9 35.5
11:30 1019 30.09 848 25.04 19.4 66.9 31 1.9 35.4
11:35 1019 30.09 848 25.04 19.4 66.9 30 1.6 34.8
11:40 1019 30.09 848 25.04 19.8 67.7 28 1.1 34
11:45 1019 30.09 848 25.04 20 68 28 1 33.8
11:50 1019 30.09 848 25.04 20.2 68.3 29 1.7 35.1
11:55 1019 30.09 848 25.04 19.9 67.8 29 1.6 34.9
12:00 1019 30.09 848 25.04 19.5 67.1 30 1.6 34.8
12:05 1019 30.09 848 25.04 20.1 68.2 29 1.5 34.7
12:10 1019 30.09 848 25.04 20.4 68.6 29 1.8 35.2
12:15 1019 30.09 848 25.04 20.6 69 28 1.8 35.2
12:20 1019 30.09 848 25.04 21.1 70 26 0.9 33.7
12:25 1019 30.09 848 25.04 21.2 70.2 26 1.4 34.5
12:30 1019 30.09 848 25.04 21.6 70.9 25 1.2 34.1
12:35 1019 30.09 848 25.04 20.6 69.1 28 1.7 35
12:40 1019 30.09 848 25.04 20.1 68.1 26 0.3 32.5
12:45 1019 30.09 848 25.04 20.3 68.5 27 1.1 34
12:50 1019 30.09 848 25.04 20.7 69.2 28 1.6 34.8
12:55 1019 30.09 848 25.04 20.6 69 27 1.1 34
13:00 1019 30.09 848 25.04 20.1 68.1 28 1.3 34.3
13:05 1019 30.09 848 25.04 20.6 69 26 0.3 32.6
13:10 1019 30.09 848 25.04 20.4 68.7 28 1.3 34.3
13:15 1019 30.09 848 25.04 20.4 68.7 28 1.3 34.3
13:20 1019 30.09 848 25.04 20.4 68.6 28 1.2 34.1
13:25 1019 30.09 848 25.04 21.5 70.6 25 0.9 33.7
13:30 1019 30.09 848 25.04 22 71.6 26 1.9 35.4
13:35 1019 30.09 848 25.04 21.9 71.4 25 1.4 34.5
13:40 1019 30.09 848 25.04 21.7 71 25 0.7 33.3
13:45 1019 30.09 848 25.04 22 71.6 24 0.6 33.1
13:50 1019 30.09 848 25.04 22.3 72.2 22 -0.5 31.1
13:55 1019 30.09 848 25.04 22.4 72.4 22 0 32
14:00 1019 30.09 848 25.04 22.6 72.8 22 0.3 32.6
14:05 1018 30.06 848 25.04 22.7 72.9 22 -0.2 31.7
14:10 1018 30.06 848 25.04 22.8 73 22 0.4 32.6
14:15 1018 30.06 848 25.04 22.6 72.7 23 0.3 32.6
14:20 1018 30.06 848 25.04 22.9 73.1 21 -0.3 31.4
14:25 1018 30.06 848 25.04 23 73.4 20 -1.1 30
14:30 1018 30.06 848 25.04 23 73.4 20 -0.8 30.6
14:35 1018 30.06 847 25.01 23.3 74 19 -1.2 29.8
14:40 1018 30.06 847 25.01 23.7 74.7 20 -0.2 31.7
14:45 1018 30.06 847 25.01 24 75.3 20 -0.4 31.3
14:50 1018 30.06 847 25.01 23.8 74.8 19 -0.9 30.4
14:55 1018 30.06 847 25.01 23.6 74.4 19 -1.4 29.5
15:00 1018 30.06 847 25.01 23.3 73.9 18 -2 28.5
15:05 1018 30.06 847 25.01 23.6 74.4 18 -1.7 29
15:10 1018 30.06 847 25.01 24 75.2 20 -0.3 31.4
15:15 1018 30.06 847 25.01 23.7 74.6 20 -0.2 31.6
15:20 1018 30.06 847 25.01 23 73.4 19 -1.9 28.5
15:25 1018 30.06 847 25.01 23.4 74.1 19 -1.4 29.5
15:30 1018 30.06 847 25.01 23.7 74.6 19 -1.1 30
15:35 1018 30.06 847 25.01 23.9 74.9 19 -1 30.2
15:40 1018 30.06 847 25.01 23.8 74.8 19 -0.8 30.6
15:45 1018 30.06 847 25.01 24.1 75.3 19 -0.8 30.6
15:50 1018 30.06 847 25.01 23.7 74.6 20 -0.7 30.8
15:55 1018 30.06 847 25.01 23.9 74.9 20 -0.4 31.2
16:00 1018 30.06 847 25.01 24 75.2 20 -0.4 31.3
16:05 1018 30.06 847 25.01 23.4 74.2 21 -0.1 31.8
16:10 1018 30.06 847 25.01 23.5 74.2 20 -0.5 31
16:15 1018 30.06 847 25.01 23.2 73.8 20 -0.6 30.9
16:20 1018 30.06 847 25.01 23.3 73.9 20 -0.5 31.1
16:25 1018 30.06 847 25.01 23.5 74.3 20 -0.4 31.3
16:30 1018 30.06 847 25.01 23.3 74 20 -0.4 31.2
16:35 1018 30.06 847 25.01 23 73.4 20 -0.7 30.8
16:40 1018 30.06 847 25.01 23.2 73.8 20 -0.5 31
16:45 1018 30.06 847 25.01 23.2 73.7 22 0.3 32.6
16:50 1018 30.06 847 25.01 23.1 73.7 20 -0.6 30.9
16:55 1018 30.06 847 25.01 22.9 73.3 21 -0.3 31.4
17:00 1018 30.06 847 25.01 23 73.4 20 -0.7 30.7
17:05 1018 30.06 847 25.01 22.8 73 21 -0.6 30.8
17:10 1018 30.06 847 25.01 23 73.5 20 -0.9 30.4
17:15 1018 30.06 847 25.01 22.9 73.1 21 -0.5 31.1
17:20 1018 30.06 847 25.01 22.7 72.8 21 -0.7 30.8
17:25 1018 30.06 847 25.01 22.4 72.4 21 -0.9 30.4
17:30 1018 30.06 847 25.01 22.6 72.8 21 -0.3 31.4
17:35 1018 30.06 847 25.01 22.9 73.2 20 -1 30.2
17:40 1018 30.06 847 25.01 22.6 72.7 20 -1.1 30.1
17:45 1018 30.06 847 25.01 22.4 72.3 20 -1.4 29.6
17:50 1018 30.06 847 25.01 22.5 72.6 20 -1.1 30
17:55 1018 30.06 847 25.01 22.2 72 21 -1.2 29.9
18:00 1018 30.06 847 25.01 21.9 71.4 21 -1.2 29.9
18:05 1018 30.06 847 25.01 21.9 71.4 20 -1.6 29.2
18:10 1018 30.06 847 25.01 21.8 71.2 22 -0.9 30.3
18:15 1018 30.06 848 25.04 21.8 71.2 21 -1.3 29.6
18:20 1018 30.06 848 25.04 21.8 71.2 20 -1.7 28.9
18:25 1018 30.06 848 25.04 21.6 70.8 21 -1.3 29.7
18:30 1018 30.06 848 25.04 21.5 70.8 23 -0.4 31.3
18:35 1018 30.06 848 25.04 21.3 70.3 23 -0.4 31.2
18:40 1019 30.09 848 25.04 21 69.9 23 -0.8 30.6
18:45 1019 30.09 848 25.04 20.9 69.7 23 -0.8 30.6
18:50 1019 30.09 848 25.04 20.7 69.3 24 -0.5 31.1
18:55 1019 30.09 848 25.04 20.5 68.9 24 -0.5 31.1
19:00 1019 30.09 848 25.04 20.3 68.6 24 -0.7 30.8
19:05 1019 30.09 848 25.04 20.3 68.5 25 -0.4 31.4
19:10 1019 30.09 848 25.04 20.1 68.2 25 -0.2 31.6
19:15 1019 30.09 848 25.04 19.9 67.9 26 -0.2 31.7
19:20 1019 30.09 848 25.04 19.8 67.6 26 -0.2 31.6
19:25 1019 30.09 848 25.04 19.7 67.4 26 0 32.1
19:30 1019 30.09 848 25.04 19.6 67.2 27 0.2 32.3
19:35 1019 30.09 849 25.07 19.4 66.9 27 -0 32
19:40 1019 30.09 849 25.07 19.2 66.6 28 0.3 32.5
19:45 1020 30.12 849 25.07 19 66.1 28 0.4 32.7
19:50 1020 30.12 849 25.07 18.7 65.7 29 0.7 33.2
19:55 1020 30.12 849 25.07 18.4 65.2 30 0.8 33.4
20:00 1020 30.12 849 25.07 18.2 64.8 31 1 33.7
20:05 1020 30.12 849 25.07 18.1 64.5 31 0.9 33.6
20:10 1020 30.12 849 25.07 17.9 64.2 32 1.1 34
20:15 1020 30.12 849 25.07 17.8 64 32 1 33.8
20:20 1020 30.12 849 25.07 17.7 63.8 33 1.3 34.3
20:25 1020 30.12 849 25.07 17.6 63.6 33 1.3 34.3
20:30 1020 30.12 849 25.07 17.5 63.4 33 1.2 34.2
20:35 1020 30.12 850 25.1 17.3 63.2 34 1.3 34.4
20:40 1020 30.12 850 25.1 17.2 62.9 35 1.8 35.3
20:45 1021 30.15 850 25.1 16.7 62 37 2 35.6
20:50 1021 30.15 850 25.1 16.1 61 38 1.9 35.5
20:55 1021 30.15 850 25.1 15.7 60.2 40 2.3 36.1
21:00 1021 30.15 850 25.1 15.5 59.8 41 2.3 36.1
21:05 1021 30.15 850 25.1 15.1 59.3 45 3.3 38
21:10 1021 30.15 850 25.1 14.3 57.8 45 2.7 36.9
21:15 1021 30.15 850 25.1 13.8 56.9 46 2.5 36.5
21:20 1021 30.15 850 25.1 13.9 57.1 44 2 35.6
21:25 1021 30.15 850 25.1 14.3 57.7 43 2 35.6
21:30 1021 30.15 850 25.1 14.4 58 43 2.1 35.8
21:35 1021 30.15 850 25.1 14.2 57.6 44 2.1 35.8
21:40 1021 30.15 850 25.1 14.6 58.2 42 2 35.5
21:45 1021 30.15 850 25.1 14.5 58.1 43 2.2 36
21:50 1021 30.15 850 25.1 14.5 58.1 42 2 35.6
21:55 1021 30.15 850 25.1 14.6 58.2 43 2.3 36.2
22:00 1021 30.15 850 25.1 14.2 57.6 45 2.5 36.5
22:05 1021 30.15 850 25.1 13.8 56.8 45 2.3 36.1
22:10 1021 30.15 850 25.1 13.8 56.9 46 2.5 36.5
22:15 1021 30.15 850 25.1 13.8 56.8 47 2.6 36.8
22:20 1021 30.15 850 25.1 13.8 56.8 46 2.5 36.5
22:25 1021 30.15 850 25.1 13.9 57 46 2.6 36.7
22:30 1021 30.15 850 25.1 13.7 56.7 47 2.6 36.7
22:35 1021 30.15 850 25.1 13.1 55.5 49 2.7 36.9
22:40 1021 30.15 850 25.1 12.5 54.4 50 2.4 36.3
22:45 1021 30.15 851 25.13 12.5 54.4 50 2.3 36.2
22:50 1021 30.15 851 25.13 12.4 54.4 49 2.2 36
22:55 1021 30.15 851 25.13 12.4 54.4 49 2.2 35.9
23:00 1021 30.15 851 25.13 12.2 54 51 2.4 36.3
23:05 1021 30.15 851 25.13 11.9 53.3 51 2.1 35.8
23:10 1021 30.15 851 25.13 12 53.6 50 2 35.5
23:15 1022 30.18 851 25.13 12.2 53.9 50 2.2 35.9
23:20 1022 30.18 851 25.13 12.1 53.7 50 2.1 35.7
23:25 1022 30.18 851 25.13 12.1 53.8 51 2.2 36
23:30 1022 30.18 851 25.13 12 53.6 51 2.3 36.1
23:35 1022 30.18 851 25.13 12 53.5 51 2.3 36.1
23:40 1022 30.18 851 25.13 11.8 53.3 52 2.4 36.4
23:45 1022 30.18 851 25.13 11.4 52.5 53 2.3 36.2
23:50 1022 30.18 851 25.13 11.4 52.4 53 2.3 36.1
23:55 1022 30.18 851 25.13 11.3 52.3 55 2.6 36.7
24:00 1022 30.18 851 25.13 10.9 51.6 56 2.5 36.6